»·PEaware :: SWA2162 KDEN-KSMF

SWA2162 :: KDEN-KSMF

FLIGHT INFORMATION

Flight Status: Arrived
Operator:
Southwest Airlines
More flights by this operator :: More flights under this callsign
Pilot: Brandon G. (13)
Aircraft: BOEING 737-800
(B738)
More flights by this aircraft type
Origin: KDEN Denver Intl
United States
Destination: KSMF Sacramento Intl
United States
More flights between these airports :: More routes between these airports
Route: +FOOOT3 RLG EKR J173 TCH J154 BAM ANAHO SLMMR3
File this flight plan on PilotEdge
Remarks:
Altitude:
(Current/Filed)
36,000ft
Speed:
(Current/Filed)
452kts
Departed: 24-Aug-17 06:18 PM
Arrived: 24-Aug-17 08:25 PM
Distance/Time
Traveled:
788nm/2:07
Distance/Time
To Go:
Arrived

Flight Plot

Page will automatically refresh every two minutes.

Flight plan parsing failed; only flown route is shown


Map Options




Map Legend


Flown Route
Filed Route
Departure Airport
Arrival Airport
Navaid (VOR, NDB)
Fix

Horizontal Profiles

Position Reports

Time Latitude Longitude Heading Altitude Ground
Speed
24-Aug-17 17:56 39.862605 -104.672613 356 5438ft 0kts
24-Aug-17 17:57 39.862605 -104.672613 356 5438ft 0kts
24-Aug-17 17:58 39.862605 -104.672613 356 5438ft 0kts
24-Aug-17 17:59 39.862605 -104.672613 356 5438ft 0kts
24-Aug-17 18:00 39.862605 -104.672613 356 5438ft 0kts
24-Aug-17 18:01 39.862605 -104.672613 356 5438ft 0kts
24-Aug-17 18:02 39.862605 -104.672613 356 5438ft 0kts
24-Aug-17 18:03 39.862605 -104.672613 356 5438ft 0kts
24-Aug-17 18:04 39.862605 -104.672613 356 5438ft 0kts
24-Aug-17 18:05 39.862605 -104.672613 356 5438ft 0kts
24-Aug-17 18:06 39.862605 -104.672613 356 5438ft 0kts
24-Aug-17 18:07 39.862605 -104.672613 356 5438ft 0kts
24-Aug-17 18:08 39.862605 -104.672613 356 5438ft 0kts
24-Aug-17 18:09 39.862605 -104.672613 356 5438ft 0kts
24-Aug-17 18:10 39.862605 -104.672613 356 5438ft 0kts
24-Aug-17 18:11 39.862605 -104.672613 356 5438ft 0kts
24-Aug-17 18:12 39.862229 -104.672583 356 5438ft 0kts
24-Aug-17 18:13 39.862228 -104.672583 356 5438ft 0kts
24-Aug-17 18:14 39.862228 -104.672583 356 5438ft 0kts
24-Aug-17 18:15 39.862228 -104.672583 356 5438ft 0kts
24-Aug-17 18:16 39.861889 -104.673324 220 5438ft 5kts
24-Aug-17 18:17 39.861390 -104.677791 271 5438ft 22kts
24-Aug-17 18:18 39.860717 -104.683933 181 5438ft 10kts
24-Aug-17 18:19 39.856043 -104.683995 180 5438ft 21kts
24-Aug-17 18:20 39.849438 -104.684046 180 5438ft 25kts
24-Aug-17 18:21 39.842031 -104.684167 179 5438ft 27kts
24-Aug-17 18:22 39.840764 -104.698462 270 5439ft 118kts
24-Aug-17 18:23 39.845371 -104.767724 287 6734ft 229kts
24-Aug-17 18:24 39.880257 -104.841850 302 8792ft 272kts
24-Aug-17 18:25 39.923474 -104.932180 298 10980ft 307kts
24-Aug-17 18:26 39.954607 -105.047655 277 12193ft 369kts
24-Aug-17 18:27 39.968503 -105.182126 279 14771ft 377kts
24-Aug-17 18:28 39.984052 -105.318818 277 17269ft 384kts
24-Aug-17 18:29 39.981357 -105.460754 267 19296ft 398kts
24-Aug-17 18:30 39.976755 -105.606719 267 21217ft 407kts
24-Aug-17 18:31 39.973121 -105.755436 268 22971ft 415kts
24-Aug-17 18:32 39.972668 -105.908024 272 24421ft 425kts
24-Aug-17 18:33 39.982305 -106.062985 272 25788ft 433kts
24-Aug-17 18:34 39.991205 -106.220880 271 27028ft 441kts
24-Aug-17 18:35 39.999554 -106.382186 271 28148ft 449kts
24-Aug-17 18:36 40.007690 -106.545701 271 29225ft 455kts
24-Aug-17 18:37 40.015371 -106.709450 271 30659ft 451kts
24-Aug-17 18:38 40.022781 -106.872399 271 32050ft 447kts
24-Aug-17 18:39 40.030531 -107.033574 272 33353ft 443kts
24-Aug-17 18:40 40.037774 -107.193860 273 34624ft 439kts
24-Aug-17 18:41 40.044609 -107.352234 274 35734ft 436kts
24-Aug-17 18:42 40.051217 -107.510044 274 36247ft 437kts
24-Aug-17 18:43 40.057808 -107.667829 274 36233ft 433kts
24-Aug-17 18:44 40.063741 -107.824919 274 36218ft 434kts
24-Aug-17 18:45 40.078927 -107.980274 285 36218ft 432kts
24-Aug-17 18:46 40.110877 -108.131764 286 36205ft 432kts
24-Aug-17 18:47 40.142401 -108.282896 286 36186ft 431kts
24-Aug-17 18:48 40.174141 -108.434516 286 36161ft 431kts
24-Aug-17 18:49 40.205719 -108.585645 285 36141ft 431kts
24-Aug-17 18:50 40.236900 -108.736861 285 36133ft 431kts
24-Aug-17 18:51 40.267836 -108.888306 285 36127ft 429kts
24-Aug-17 18:52 40.298449 -109.039367 285 36121ft 429kts
24-Aug-17 18:53 40.328844 -109.190500 285 36111ft 429kts
24-Aug-17 18:54 40.359117 -109.342159 285 36106ft 429kts
24-Aug-17 18:55 40.389071 -109.493348 285 36100ft 428kts
24-Aug-17 18:56 40.418878 -109.644929 285 36101ft 428kts
24-Aug-17 18:57 40.448399 -109.796191 284 36107ft 428kts
24-Aug-17 18:58 40.477717 -109.947557 284 36119ft 428kts
24-Aug-17 18:59 40.506892 -110.099388 284 36134ft 427kts
24-Aug-17 19:00 40.535689 -110.250395 284 36149ft 425kts
24-Aug-17 19:01 40.564262 -110.401286 284 36163ft 425kts
24-Aug-17 19:02 40.592697 -110.552736 284 36181ft 426kts
24-Aug-17 19:03 40.620820 -110.703574 284 36183ft 424kts
24-Aug-17 19:04 40.648782 -110.854860 284 36189ft 424kts
24-Aug-17 19:05 40.676449 -111.005621 283 36184ft 423kts
24-Aug-17 19:06 40.703848 -111.156149 283 36152ft 423kts
24-Aug-17 19:07 40.731428 -111.307249 283 36136ft 423kts
24-Aug-17 19:08 40.758259 -111.457807 283 36123ft 422kts
24-Aug-17 19:09 40.784883 -111.608449 283 36092ft 422kts
24-Aug-17 19:10 40.811716 -111.759614 283 36062ft 422kts
24-Aug-17 19:11 40.837847 -111.910161 283 36033ft 421kts
24-Aug-17 19:12 40.844708 -112.064394 267 36023ft 421kts
24-Aug-17 19:13 40.834927 -112.218213 266 36029ft 421kts
24-Aug-17 19:14 40.824684 -112.372635 266 36033ft 421kts
24-Aug-17 19:15 40.814709 -112.526324 266 36037ft 420kts
24-Aug-17 19:16 40.802860 -112.705194 266 36027ft 419kts
24-Aug-17 19:17 40.792287 -112.858769 266 36025ft 418kts
24-Aug-17 19:18 40.783350 -112.986019 266 36022ft 418kts
24-Aug-17 19:19 40.772455 -113.138433 266 36017ft 417kts
24-Aug-17 19:20 40.761326 -113.291117 265 36013ft 417kts
24-Aug-17 19:21 40.750336 -113.443245 266 36008ft 417kts
24-Aug-17 19:22 40.740642 -113.570545 265 36005ft 417kts
24-Aug-17 19:23 40.728814 -113.722598 265 36002ft 417kts
24-Aug-17 19:24 40.721251 -113.874937 268 36000ft 417kts
24-Aug-17 19:25 40.715642 -114.027861 268 35999ft 416kts
24-Aug-17 19:26 40.708607 -114.204576 268 36001ft 413kts
24-Aug-17 19:27 40.703934 -114.330455 268 36005ft 413kts
24-Aug-17 19:28 40.697812 -114.481929 267 36011ft 413kts
24-Aug-17 19:29 40.691710 -114.632587 267 36018ft 411kts
24-Aug-17 19:30 40.684929 -114.783473 267 36026ft 411kts
24-Aug-17 19:31 40.678009 -114.933420 267 36039ft 410kts
24-Aug-17 19:32 40.670831 -115.082979 266 36044ft 409kts
24-Aug-17 19:33 40.663354 -115.232941 266 36046ft 409kts
24-Aug-17 19:34 40.655774 -115.382049 267 36046ft 408kts
24-Aug-17 19:35 40.648635 -115.531067 266 36043ft 408kts
24-Aug-17 19:36 40.641004 -115.680496 266 36043ft 408kts
24-Aug-17 19:37 40.633117 -115.829374 266 36042ft 408kts
24-Aug-17 19:38 40.625009 -115.978260 266 36037ft 408kts
24-Aug-17 19:39 40.616695 -116.127246 266 36035ft 407kts
24-Aug-17 19:40 40.608237 -116.275324 266 36029ft 406kts
24-Aug-17 19:41 40.599572 -116.423688 266 36022ft 406kts
24-Aug-17 19:42 40.591019 -116.571452 266 36016ft 404kts
24-Aug-17 19:43 40.581995 -116.718884 265 36011ft 404kts
24-Aug-17 19:44 40.572641 -116.866363 265 36010ft 404kts
24-Aug-17 19:45 40.548450 -117.010658 254 36009ft 406kts
24-Aug-17 19:46 40.515250 -117.152485 254 36007ft 406kts
24-Aug-17 19:47 40.481698 -117.294624 253 36003ft 407kts
24-Aug-17 19:48 40.448430 -117.436605 254 35998ft 407kts
24-Aug-17 19:49 40.414904 -117.579074 253 35993ft 408kts
24-Aug-17 19:50 40.381096 -117.721183 253 35988ft 408kts
24-Aug-17 19:51 40.347006 -117.863411 253 35977ft 409kts
24-Aug-17 19:52 40.312602 -118.005984 253 35972ft 409kts
24-Aug-17 19:53 40.278124 -118.147984 253 35966ft 409kts
24-Aug-17 19:54 40.243472 -118.289825 253 35959ft 409kts
24-Aug-17 19:55 40.208504 -118.431989 253 35950ft 409kts
24-Aug-17 19:56 40.173594 -118.573256 252 35951ft 408kts
24-Aug-17 19:57 40.138432 -118.714686 252 35952ft 408kts
24-Aug-17 19:58 40.103299 -118.855149 252 35956ft 407kts
24-Aug-17 19:59 40.067993 -118.995426 252 35964ft 407kts
24-Aug-17 20:00 40.032656 -119.136325 252 35558ft 408kts
24-Aug-17 20:01 39.996642 -119.277297 251 34560ft 413kts
24-Aug-17 20:02 39.956112 -119.418987 242 33562ft 421kts
24-Aug-17 20:03 39.891704 -119.547780 237 32563ft 425kts
24-Aug-17 20:04 39.825698 -119.673331 236 31380ft 413kts
24-Aug-17 20:05 39.762020 -119.794027 237 29588ft 395kts
24-Aug-17 20:06 39.701199 -119.909780 236 27851ft 382kts
24-Aug-17 20:07 39.641970 -120.021839 236 26160ft 372kts
24-Aug-17 20:08 39.583643 -120.131786 235 24451ft 366kts
24-Aug-17 20:09 39.526378 -120.238761 235 22885ft 359kts
24-Aug-17 20:10 39.467290 -120.342779 225 21199ft 357kts
24-Aug-17 20:11 39.386939 -120.419212 214 19502ft 353kts
24-Aug-17 20:12 39.305789 -120.489992 214 17866ft 351kts
24-Aug-17 20:13 39.225790 -120.559399 214 16423ft 345kts
24-Aug-17 20:14 39.146025 -120.628225 213 14800ft 345kts
24-Aug-17 20:15 39.072458 -120.706022 238 13134ft 346kts
24-Aug-17 20:16 39.039872 -120.820617 251 11554ft 332kts
24-Aug-17 20:17 39.012148 -120.929005 250 10223ft 301kts
24-Aug-17 20:18 38.986736 -121.025992 250 9412ft 279kts
24-Aug-17 20:19 38.962321 -121.119835 250 8204ft 273kts
24-Aug-17 20:20 38.938095 -121.211114 250 6896ft 259kts
24-Aug-17 20:21 38.916375 -121.292718 249 6065ft 232kts
24-Aug-17 20:22 38.895594 -121.370645 249 4711ft 230kts
24-Aug-17 20:23 38.864024 -121.439922 234 3750ft 213kts
24-Aug-17 20:24 38.833487 -121.497858 234 2865ft 175kts
24-Aug-17 20:25 38.808115 -121.545777 233 2172ft 159kts
24-Aug-17 20:26 38.778719 -121.590408 217 1525ft 166kts
24-Aug-17 20:27 38.736165 -121.600754 179 691ft 154kts
24-Aug-17 20:28 38.696374 -121.601257 180 36ft 68kts
24-Aug-17 20:29 38.692951 -121.599511 150 36ft 0kts
24-Aug-17 20:30 38.694402 -121.598646 8 35ft 12kts
24-Aug-17 20:31 38.695111 -121.594009 25 36ft 8kts

Navigation Log

Ident Type
Flight plan parsing failed, navigation log unavailable